createdAt,value
2023-01-02T00:00:22.100Z,100760.13
2023-01-02T00:10:26.457Z,100760.03
2023-01-02T00:20:29.455Z,100758.34
2023-01-02T00:30:38.258Z,100737.81
2023-01-02T00:40:41.738Z,100736.19
2023-01-02T00:50:46.959Z,100729.69
2023-01-02T01:00:51.667Z,100711.88
2023-01-02T01:10:56.029Z,100704.88
2023-01-02T01:20:59.061Z,100710.47
2023-01-02T01:31:07.942Z,100712.91
2023-01-02T01:41:14.218Z,100725.38
2023-01-02T01:51:20.691Z,100718.66
2023-01-02T02:01:23.894Z,100739.50
2023-01-02T02:11:29.235Z,100739.75
2023-01-02T02:21:51.283Z,100742.03
2023-01-02T02:32:04.479Z,100722.72
2023-01-02T02:42:15.541Z,100742.81
2023-01-02T02:52:26.958Z,100739.34
2023-01-02T03:02:29.998Z,100732.03
2023-01-02T03:12:41.501Z,100742.03
2023-01-02T03:22:50.738Z,100725.03
2023-01-02T03:32:59.578Z,100729.06
2023-01-02T03:43:09.550Z,100742.63
2023-01-02T03:53:14.678Z,100744.19
2023-01-02T04:03:22.289Z,100753.91
2023-01-02T04:13:34.009Z,100753.75
2023-01-02T04:23:40.715Z,100769.91
2023-01-02T04:33:49.485Z,100777.00
2023-01-02T04:43:52.441Z,100769.59
2023-01-02T04:53:56.854Z,100790.44
2023-01-02T05:04:01.258Z,100802.41
2023-01-02T05:14:07.826Z,100797.03
2023-01-02T05:24:11.025Z,100816.16
2023-01-02T05:34:16.467Z,100813.88
2023-01-02T05:44:19.391Z,100843.50
2023-01-02T05:54:23.713Z,100848.84
2023-01-02T06:04:26.715Z,100849.59
2023-01-02T06:14:31.121Z,100877.69
2023-01-02T06:24:34.631Z,100902.94
2023-01-02T06:34:38.946Z,100951.38
2023-01-02T06:44:41.896Z,100982.41
2023-01-02T06:54:46.240Z,101001.06
2023-01-02T07:04:49.202Z,101054.00
2023-01-02T07:14:53.522Z,101075.47
2023-01-02T07:24:56.434Z,101096.31
2023-01-02T07:35:00.779Z,101139.03
2023-01-02T07:45:04.127Z,101136.88
2023-01-02T07:55:09.537Z,101164.09
2023-01-02T08:05:12.716Z,101190.53
2023-01-02T08:15:17.221Z,101226.50
2023-01-02T08:25:20.309Z,101234.50
2023-01-02T08:35:37.235Z,101247.94
2023-01-02T08:45:40.680Z,101273.28
2023-01-02T08:55:44.982Z,101279.63
2023-01-02T09:05:47.979Z,101302.63
2023-01-02T09:15:52.395Z,101317.25
2023-01-02T09:25:59.010Z,101348.22
2023-01-02T09:36:04.256Z,101356.88
2023-01-02T09:46:11.904Z,101365.63
2023-01-02T09:56:25.402Z,101378.75
2023-01-02T10:06:38.391Z,101380.63
2023-01-02T10:16:46.327Z,101398.44
2023-01-02T10:26:53.862Z,101395.28
2023-01-02T10:37:02.968Z,101419.31
2023-01-02T10:47:19.512Z,101415.38
2023-01-02T10:57:26.968Z,101418.94
2023-01-02T11:07:33.742Z,101436.84
2023-01-02T11:17:43.626Z,101436.72
2023-01-02T11:27:46.819Z,101446.66
2023-01-02T11:37:54.039Z,101457.78
2023-01-02T11:48:01.587Z,101450.13
2023-01-02T11:58:16.743Z,101464.41
2023-01-02T12:08:29.100Z,101467.69
2023-01-02T12:18:49.791Z,101476.22
2023-01-02T12:29:47.018Z,101482.56
2023-01-02T12:40:34.761Z,101481.03
2023-01-02T12:50:58.062Z,101510.25
2023-01-02T13:01:11.128Z,101506.91
2023-01-02T13:11:19.361Z,101503.81
2023-01-02T13:21:29.596Z,101517.38
2023-01-02T13:31:49.673Z,101503.59
2023-01-02T13:42:13.916Z,101509.25
2023-01-02T13:52:20.387Z,101529.16
2023-01-02T14:02:24.930Z,101535.16
2023-01-02T14:12:28.176Z,101544.25
2023-01-02T14:22:33.134Z,101554.84
2023-01-02T14:32:38.098Z,101560.31
2023-01-02T14:43:01.825Z,101572.31
2023-01-02T14:53:12.781Z,101579.06
2023-01-02T15:03:25.940Z,101587.16
2023-01-02T15:13:29.139Z,101624.16
2023-01-02T15:23:33.916Z,101648.25
2023-01-02T15:33:36.947Z,101676.00
2023-01-02T15:43:59.014Z,101693.66
2023-01-02T15:54:03.523Z,101704.00
2023-01-02T16:04:25.810Z,101722.78
2023-01-02T16:14:35.397Z,101742.25
2023-01-02T16:24:45.060Z,101750.97
2023-01-02T16:35:00.364Z,101762.31
2023-01-02T16:45:06.909Z,101797.59
2023-01-02T16:55:16.132Z,101797.56
2023-01-02T17:05:25.801Z,101821.72
2023-01-02T17:15:29.000Z,101822.94
2023-01-02T17:25:34.024Z,101846.34
2023-01-02T17:35:37.161Z,101860.31
2023-01-02T17:45:42.809Z,101870.78
2023-01-02T17:56:21.840Z,101885.53
2023-01-02T18:06:17.584Z,101913.44
2023-01-02T18:16:22.155Z,101921.66
2023-01-02T18:26:27.726Z,101944.47
2023-01-02T18:36:31.750Z,101976.25
2023-01-02T18:47:02.005Z,101977.75
2023-01-02T18:57:02.650Z,101999.41
2023-01-02T19:07:28.197Z,102011.84
2023-01-02T19:17:34.845Z,102042.88
2023-01-02T19:27:39.632Z,102041.22
2023-01-02T19:37:43.292Z,102059.75
2023-01-02T19:47:49.321Z,102094.94
2023-01-02T19:57:52.350Z,102096.31
2023-01-02T20:07:57.940Z,102100.31
2023-01-02T20:18:08.231Z,102111.66
2023-01-02T20:28:13.349Z,102121.94
2023-01-02T20:38:16.478Z,102126.94
2023-01-02T20:48:20.966Z,102135.41
2023-01-02T20:58:24.508Z,102141.63
2023-01-02T21:08:29.582Z,102165.41
2023-01-02T21:18:34.940Z,102166.84
2023-01-02T21:28:39.984Z,102190.28
2023-01-02T21:38:42.821Z,102207.78
2023-01-02T21:48:47.233Z,102192.81
2023-01-02T21:58:50.254Z,102192.78
2023-01-02T22:08:54.687Z,102203.47
2023-01-02T22:18:57.717Z,102216.81
2023-01-02T22:29:02.074Z,102244.56
2023-01-02T22:39:27.732Z,102258.81
2023-01-02T22:49:32.266Z,102256.81
2023-01-02T22:59:35.224Z,102261.69
2023-01-02T23:09:39.672Z,102273.28
2023-01-02T23:19:42.635Z,102274.59
2023-01-02T23:29:47.068Z,102299.25
2023-01-02T23:39:50.135Z,102313.09
2023-01-02T23:49:54.539Z,102330.59
2023-01-02T23:59:57.496Z,102316.44
